Abovyan, Armenia
Current Conditions -  °F | °C
As of 9:30 PM on Thursday 18 Dec 2014 (Local Time) from UDYZ Reporting Station
Broken Clouds Broken Clouds  
Wind Chill: 36°   Ceiling: 10000
Heat Index: 36°   Visibility: 4mi
Dew Point: 32°   Wind: 0mph
Humidity: 87%   Direction: NA
Pressure: 30.18"   Gusts: NA
Location:  40.27°N, 44.62°E
Report Text: UDYZ 181630Z 00000MPS 6000 BKN100 02/00 Q1022 R09/000070 NOSIG
Loading
Personal Weather Stations






























Interactive Weather Map New forecast layout! Learn more

10-Day Weather Forecast

Advertisements
Track Severe Weather on mobile